Time;durP1;ratioP1;P1;durP2;ratioP2;P2;SDS_P1;SDS_P2;PMS_P1;PMS_P2;Temp;Humidity;BMP_temperature;BMP_pressure;BME280_temperature;BME280_humidity;BME280_pressure;Samples;Min_cycle;Max_cycle;Signal;HPM_P1;HPM_P2
2023/06/20 00:00:14;;;;;;;13.80;8.80;;;;;;;17.79;66.82;96748.83;109218;1266;22524;-84
2023/06/20 00:03:05;;;;;;;10.10;8.80;;;;;;;17.81;66.66;96752.04;109184;1272;22707;-84
2023/06/20 00:05:37;;;;;;;10.10;9.10;;;;;;;17.80;66.71;96754.00;109097;1268;113067;-84
2023/06/20 00:08:08;;;;;;;9.90;8.70;;;;;;;17.81;66.57;96749.30;109256;1265;22516;-83
2023/06/20 00:10:39;;;;;;;10.20;9.10;;;;;;;17.82;66.56;96750.39;109268;1266;22534;-84
2023/06/20 00:13:11;;;;;;;9.40;8.50;;;;;;;17.81;66.42;96747.21;109297;1263;22526;-84
2023/06/20 00:15:42;;;;;;;11.80;8.70;;;;;;;17.76;66.33;96746.29;109230;1271;57295;-83
2023/06/20 00:18:13;;;;;;;9.40;8.40;;;;;;;17.71;66.38;96743.07;109334;1263;22686;-84
2023/06/20 00:20:46;;;;;;;9.50;8.20;;;;;;;17.71;66.36;96743.42;109272;1271;24183;-84
2023/06/20 00:23:17;;;;;;;9.60;8.60;;;;;;;17.70;66.28;96738.89;109318;1271;22597;-84
2023/06/20 00:25:49;;;;;;;11.40;9.10;;;;;;;17.69;66.30;96739.08;109206;1265;37520;-84
2023/06/20 00:28:21;;;;;;;9.60;8.60;;;;;;;17.70;66.20;96739.55;109253;1263;25296;-84
2023/06/20 00:30:52;;;;;;;10.00;8.30;;;;;;;17.67;66.10;96744.50;109254;1263;22818;-84
2023/06/20 00:33:24;;;;;;;9.30;8.10;;;;;;;17.58;65.97;96749.14;109277;1266;22554;-84
2023/06/20 00:35:55;;;;;;;8.80;7.90;;;;;;;17.50;66.04;96746.93;109228;1266;50707;-84
2023/06/20 00:38:29;;;;;;;9.50;8.50;;;;;;;17.51;66.19;96749.16;109274;1271;25028;-84
2023/06/20 00:41:00;;;;;;;9.60;8.70;;;;;;;17.56;66.27;96744.60;109259;1266;24238;-84
2023/06/20 00:43:31;;;;;;;9.70;8.70;;;;;;;17.60;66.21;96748.02;109320;1271;22512;-84
2023/06/20 00:46:05;;;;;;;8.70;7.80;;;;;;;17.60;66.20;96744.52;109229;1271;46333;-84
2023/06/20 00:48:36;;;;;;;10.60;8.20;;;;;;;17.63;66.18;96744.70;109231;1266;22559;-84
2023/06/20 00:51:08;;;;;;;9.30;8.40;;;;;;;17.61;66.10;96746.84;109266;1266;22507;-84
2023/06/20 00:53:42;;;;;;;9.80;8.80;;;;;;;17.56;66.05;96748.51;109258;1271;22527;-84
2023/06/20 00:56:15;;;;;;;10.10;8.70;;;;;;;17.54;66.17;96742.00;109243;1271;37317;-84
2023/06/20 00:58:47;;;;;;;9.30;8.30;;;;;;;17.53;66.30;96740.45;109298;1265;22517;-84
2023/06/20 01:01:18;;;;;;;10.70;9.60;;;;;;;17.50;66.15;96742.61;109290;1266;23699;-83
2023/06/20 01:03:49;;;;;;;10.00;8.60;;;;;;;17.48;66.27;96743.41;109107;1271;215135;-84
2023/06/20 01:06:30;;;;;;;10.10;8.70;;;;;;;17.46;66.28;96740.80;109141;1260;58015;-84
2023/06/20 01:09:08;;;;;;;10.70;9.10;;;;;;;17.43;66.29;96741.86;109146;1272;24194;-84
2023/06/20 01:11:48;;;;;;;9.80;8.80;;;;;;;17.34;66.37;96735.15;109181;1272;25418;-84
2023/06/20 01:14:26;;;;;;;9.00;8.10;;;;;;;17.33;66.50;96733.86;109160;1265;24189;-84
2023/06/20 01:17:01;;;;;;;10.10;8.90;;;;;;;17.32;66.50;96733.61;109171;1263;104530;-84
2023/06/20 01:20:01;;;;;;;9.50;8.50;;;;;;;17.27;66.36;96731.38;109286;1266;26444;-84
2023/06/20 01:22:49;;;;;;;9.90;8.60;;;;;;;17.17;66.63;96731.81;109244;1260;25429;-84
2023/06/20 01:25:28;;;;;;;9.30;8.30;;;;;;;17.17;66.76;96733.50;109186;1269;58465;-84
2023/06/20 01:28:09;;;;;;;8.20;7.40;;;;;;;17.17;66.71;96736.71;109156;1272;22510;-84
2023/06/20 01:30:52;;;;;;;10.00;8.30;;;;;;;17.21;66.85;96737.61;109111;1266;24215;-83
2023/06/20 01:33:29;;;;;;;9.10;8.10;;;;;;;17.27;66.87;96737.73;109144;1266;22519;-84
2023/06/20 01:36:03;;;;;;;9.10;8.20;;;;;;;17.32;66.87;96740.16;109147;1271;63320;-83
2023/06/20 01:38:38;;;;;;;11.90;8.00;;;;;;;17.37;66.77;96741.21;109322;1263;24206;-83
2023/06/20 01:41:11;;;;;;;9.10;8.10;;;;;;;17.41;66.64;96739.71;109254;1269;22555;-84
2023/06/20 01:43:45;;;;;;;10.00;7.80;;;;;;;17.45;66.70;96745.08;109299;1266;23290;-84
2023/06/20 01:46:21;;;;;;;9.50;8.60;;;;;;;17.47;66.59;96742.43;109177;1259;87254;-83
2023/06/20 01:48:54;;;;;;;9.70;8.70;;;;;;;17.48;66.58;96743.60;109277;1263;22510;-84
2023/06/20 01:51:26;;;;;;;10.30;8.90;;;;;;;17.44;66.58;96746.59;109279;1268;22645;-84
2023/06/20 01:54:02;;;;;;;9.60;8.70;;;;;;;17.41;66.59;96744.61;109254;1270;23744;-83
2023/06/20 01:56:35;;;;;;;9.50;8.10;;;;;;;17.35;66.58;96746.67;109249;1263;34901;-84
2023/06/20 01:59:07;;;;;;;9.40;8.50;;;;;;;17.29;66.67;96740.49;109406;1266;22515;-83
2023/06/20 02:01:42;;;;;;;9.90;8.90;;;;;;;17.27;66.66;96743.85;109323;1271;22562;-84
2023/06/20 02:04:14;;;;;;;10.20;8.80;;;;;;;17.26;66.84;96740.56;109264;1269;22519;-83
2023/06/20 02:06:46;;;;;;;10.50;9.50;;;;;;;17.25;66.82;96742.09;109127;1250;40693;-83
2023/06/20 02:09:20;;;;;;;10.00;9.00;;;;;;;17.26;66.86;96738.36;109095;1270;22535;-84
2023/06/20 02:11:56;;;;;;;9.30;8.40;;;;;;;17.26;66.97;96739.21;109145;1269;22558;-83
2023/06/20 02:14:28;;;;;;;12.50;8.90;;;;;;;17.24;66.84;96737.30;109115;1266;24360;-83
2023/06/20 02:17:03;;;;;;;9.70;8.70;;;;;;;17.25;66.91;96740.01;109120;1272;42380;-83
2023/06/20 02:19:34;;;;;;;10.20;9.10;;;;;;;17.27;66.98;96737.56;109141;1265;22673;-84
2023/06/20 02:22:08;;;;;;;10.70;9.40;;;;;;;17.26;66.93;96739.12;109161;1272;22541;-84
2023/06/20 02:24:41;;;;;;;10.60;9.50;;;;;;;17.23;66.90;96744.45;109172;1269;22982;-84
2023/06/20 02:27:18;;;;;;;9.60;8.60;;;;;;;17.23;66.91;96740.00;109223;1268;37441;-84
2023/06/20 02:29:51;;;;;;;10.20;8.00;;;;;;;17.23;66.84;96736.48;109300;1271;22509;-84
2023/06/20 02:32:24;;;;;;;9.50;8.30;;;;;;;17.19;66.81;96736.87;109252;1263;23958;-83
2023/06/20 02:34:57;;;;;;;9.70;7.80;;;;;;;17.16;66.83;96739.40;109257;1271;25430;-84
2023/06/20 02:37:33;;;;;;;9.50;8.30;;;;;;;17.16;66.88;96737.95;109247;1269;22984;-84
2023/06/20 02:40:08;;;;;;;9.00;7.70;;;;;;;17.17;66.97;96740.52;109280;1263;22528;-84
2023/06/20 02:42:40;;;;;;;10.20;9.20;;;;;;;17.18;66.99;96739.80;109260;1249;22527;-84
2023/06/20 02:45:13;;;;;;;9.40;8.20;;;;;;;17.19;67.04;96740.69;107922;1263;1832268;-84
2023/06/20 02:47:59;;;;;;;12.20;8.70;;;;;;;17.19;67.08;96738.48;109255;1263;22639;-83
2023/06/20 02:50:40;;;;;;;10.80;9.10;;;;;;;17.17;67.09;96735.58;109286;1263;23967;-84
2023/06/20 02:53:22;;;;;;;9.20;8.20;;;;;;;17.17;67.13;96735.58;109270;1271;22512;-84
2023/06/20 02:55:58;;;;;;;9.40;8.50;;;;;;;17.18;67.27;96740.00;109218;1271;55824;-84
2023/06/20 02:58:31;;;;;;;9.20;8.30;;;;;;;17.23;67.28;96737.80;109230;1269;22520;-84
2023/06/20 03:01:05;;;;;;;10.30;8.30;;;;;;;17.28;67.22;96744.81;109233;1271;22508;-84
2023/06/20 03:03:40;;;;;;;9.70;8.70;;;;;;;17.31;67.37;96742.80;109284;1268;24178;-84
2023/06/20 03:06:14;;;;;;;9.80;8.80;;;;;;;17.33;67.27;96741.90;109129;1249;95430;-83
2023/06/20 03:08:49;;;;;;;9.20;8.20;;;;;;;17.32;67.18;96743.16;109102;1265;22541;-84
2023/06/20 03:11:21;;;;;;;9.60;8.60;;;;;;;17.32;67.15;96743.10;109171;1270;25256;-84
2023/06/20 03:13:53;;;;;;;9.70;8.40;;;;;;;17.34;67.22;96742.99;109118;1272;24231;-84
2023/06/20 03:16:26;;;;;;;10.40;9.10;;;;;;;17.34;67.24;96746.61;109133;1271;69344;-84
2023/06/20 03:18:57;;;;;;;8.60;7.80;;;;;;;17.34;67.27;96742.17;109265;1267;23987;-84
2023/06/20 03:21:31;;;;;;;9.60;8.60;;;;;;;17.34;67.25;96740.50;109237;1268;22532;-84
2023/06/20 03:24:02;;;;;;;9.40;8.50;;;;;;;17.36;67.36;96741.79;109249;1271;22548;-84
2023/06/20 03:26:36;;;;;;;9.50;8.60;;;;;;;17.40;67.35;96739.88;109183;1250;52732;-84
2023/06/20 03:29:09;;;;;;;9.80;8.70;;;;;;;17.38;67.13;96737.97;109254;1266;25250;-84
2023/06/20 03:31:42;;;;;;;8.80;7.90;;;;;;;17.37;67.31;96739.86;109281;1271;22519;-84
2023/06/20 03:34:16;;;;;;;9.10;8.20;;;;;;;17.43;67.39;96744.28;109258;1271;22501;-84
2023/06/20 03:36:48;;;;;;;9.50;8.10;;;;;;;17.45;67.25;96739.71;109228;1271;34472;-84
2023/06/20 03:39:19;;;;;;;9.70;8.70;;;;;;;17.45;67.29;96745.23;109260;1266;22520;-84
2023/06/20 03:41:50;;;;;;;10.50;8.60;;;;;;;17.46;67.27;96744.14;109236;1250;22512;-84
2023/06/20 03:44:22;;;;;;;9.80;8.30;;;;;;;17.49;67.31;96747.88;109239;1266;25223;-84
2023/06/20 03:46:53;;;;;;;9.20;8.30;;;;;;;17.52;67.24;96751.91;109228;1271;91294;-85
2023/06/20 03:49:24;;;;;;;10.30;9.10;;;;;;;17.55;67.24;96753.15;109246;1271;23469;-85
2023/06/20 03:51:58;;;;;;;8.80;8.00;;;;;;;17.59;67.40;96759.52;109235;1269;22556;-84
2023/06/20 03:54:29;;;;;;;9.20;8.30;;;;;;;17.64;67.41;96759.29;109253;1269;22508;-85
2023/06/20 03:57:00;;;;;;;9.50;8.50;;;;;;;17.66;67.35;96757.70;109116;1269;89712;-85
2023/06/20 03:59:31;;;;;;;9.50;8.50;;;;;;;17.70;67.36;96760.02;109268;1271;22620;-85
2023/06/20 04:02:03;;;;;;;9.90;8.30;;;;;;;17.75;67.41;96759.04;109266;1264;22508;-84
2023/06/20 04:04:35;;;;;;;9.90;8.30;;;;;;;17.82;67.36;96762.04;109265;1271;22505;-84
2023/06/20 04:07:08;;;;;;;9.30;8.30;;;;;;;17.84;67.25;96762.88;109237;1269;48879;-85
2023/06/20 04:09:41;;;;;;;9.90;8.90;;;;;;;17.86;67.09;96761.08;109242;1268;22531;-85
2023/06/20 04:12:13;;;;;;;9.40;8.20;;;;;;;17.88;67.15;96759.26;109237;1271;23907;-84
2023/06/20 04:14:44;;;;;;;9.70;8.70;;;;;;;17.92;67.02;96759.62;109288;1271;22559;-85
2023/06/20 04:17:17;;;;;;;9.80;8.10;;;;;;;17.97;67.16;96762.30;109205;1268;62205;-84
2023/06/20 04:19:48;;;;;;;9.90;8.40;;;;;;;18.02;67.09;96760.20;109252;1271;23222;-84
2023/06/20 04:22:26;;;;;;;9.00;8.10;;;;;;;18.05;67.00;96760.79;109258;1269;24228;-85
2023/06/20 04:24:59;;;;;;;;;;;;;;;18.13;67.18;96755.92;109220;1271;25214;-85
2023/06/20 04:27:32;;;;;;;8.40;7.50;;;;;;;18.19;67.06;96753.88;109148;1266;22530;-85
2023/06/20 04:30:05;;;;;;;9.80;7.80;;;;;;;18.26;67.15;96754.68;109126;1266;22533;-85
2023/06/20 04:32:41;;;;;;;10.00;8.40;;;;;;;18.34;66.86;96751.49;109119;1266;22558;-85
2023/06/20 04:35:20;;;;;;;9.60;8.30;;;;;;;18.43;66.70;96750.74;109122;1269;39029;-85
2023/06/20 04:37:53;;;;;;;9.40;8.40;;;;;;;18.50;66.62;96752.79;109262;1269;22550;-84
2023/06/20 04:40:26;;;;;;;9.30;7.70;;;;;;;18.59;66.71;96753.36;109244;1269;24196;-85
2023/06/20 04:42:57;;;;;;;9.80;8.20;;;;;;;18.67;66.44;96751.15;109238;1269;22557;-84
2023/06/20 04:45:29;;;;;;;8.90;8.00;;;;;;;18.76;66.56;96755.55;109250;1271;54743;-85
2023/06/20 04:48:04;;;;;;;8.40;7.60;;;;;;;18.84;66.68;96759.09;109301;1263;25258;-85
2023/06/20 04:50:36;;;;;;;11.20;8.00;;;;;;;18.94;66.93;96757.15;109266;1271;26576;-81
2023/06/20 04:53:07;;;;;;;8.90;7.60;;;;;;;19.01;66.03;96759.94;109249;1269;25335;-81
2023/06/20 04:55:39;;;;;;;9.20;7.90;;;;;;;19.08;65.67;96760.17;108903;1269;22826;-80
2023/06/20 04:58:10;;;;;;;7.90;7.20;;;;;;;19.15;65.67;96761.00;108936;1269;24224;-79
2023/06/20 05:00:42;;;;;;;8.70;7.80;;;;;;;19.23;65.15;96767.34;108849;1271;22538;-78
2023/06/20 05:03:19;;;;;;;8.60;7.50;;;;;;;19.32;65.27;96769.96;109278;1266;22508;-82
2023/06/20 05:05:51;;;;;;;8.30;7.30;;;;;;;19.40;64.86;96771.77;109118;1269;48167;-81
2023/06/20 05:08:22;;;;;;;9.00;7.40;;;;;;;19.47;64.68;96770.73;109259;1271;22554;-80
2023/06/20 05:10:53;;;;;;;9.80;7.30;;;;;;;19.55;64.21;96770.04;108877;1268;24212;-80
2023/06/20 05:13:25;;;;;;;8.90;7.20;;;;;;;19.60;63.74;96773.94;109253;1269;22552;-80
2023/06/20 05:15:56;;;;;;;9.00;7.30;;;;;;;19.68;63.70;96774.38;109234;1271;42275;-80
2023/06/20 05:18:27;;;;;;;7.70;6.90;;;;;;;19.83;63.46;96773.58;109293;1271;22515;-81
2023/06/20 05:20:58;;;;;;;8.20;7.00;;;;;;;19.96;63.00;96774.02;109240;1249;22511;-81
2023/06/20 05:23:30;;;;;;;7.80;6.90;;;;;;;20.15;62.65;96772.48;109323;1262;22527;-85
2023/06/20 05:26:03;;;;;;;8.30;7.40;;;;;;;20.64;62.69;96770.92;109278;1269;40199;-82
2023/06/20 05:28:37;;;;;;;9.50;7.50;;;;;;;21.44;61.83;96773.04;109314;1269;22511;-82
2023/06/20 05:31:10;;;;;;;7.70;6.90;;;;;;;22.19;60.94;96773.27;109246;1271;22507;-81
2023/06/20 05:33:42;;;;;;;7.30;6.60;;;;;;;23.21;59.81;96773.10;109267;1266;25470;-82
2023/06/20 05:36:13;;;;;;;7.70;6.60;;;;;;;24.02;58.21;96771.77;109242;1263;34831;-83
2023/06/20 05:38:48;;;;;;;7.60;6.80;;;;;;;24.66;56.44;96772.26;109291;1269;25309;-84
2023/06/20 05:41:19;;;;;;;7.40;5.90;;;;;;;25.09;55.24;96770.23;109285;1271;25403;-85
2023/06/20 05:43:51;;;;;;;7.30;6.30;;;;;;;25.53;54.16;96774.39;109353;1266;22524;-84
2023/06/20 05:46:27;;;;;;;8.80;6.10;;;;;;;25.93;53.17;96772.27;109150;1269;23775;-83
2023/06/20 05:49:02;;;;;;;6.70;6.10;;;;;;;26.42;52.78;96776.49;109093;1266;24165;-82
2023/06/20 05:51:33;;;;;;;6.70;6.00;;;;;;;26.65;51.21;96768.98;109129;1272;22531;-82
2023/06/20 05:54:07;;;;;;;7.50;6.10;;;;;;;26.76;50.55;96766.88;109115;1269;38181;-82
2023/06/20 05:56:38;;;;;;;6.70;6.10;;;;;;;27.02;49.56;96766.71;109278;1269;22515;-81
2023/06/20 05:59:09;;;;;;;6.30;5.70;;;;;;;27.43;49.28;96765.80;109248;1272;22571;-83
2023/06/20 06:01:45;;;;;;;6.60;5.90;;;;;;;27.96;48.79;96768.05;109263;1260;22530;-83
2023/06/20 06:04:20;;;;;;;6.10;5.30;;;;;;;28.78;48.46;96768.35;109394;1271;69338;-83
2023/06/20 06:06:59;;;;;;;6.60;5.90;;;;;;;29.48;47.02;96769.31;109212;1260;22509;-83
2023/06/20 06:09:38;;;;;;;6.20;5.70;;;;;;;30.08;46.49;96771.93;109230;1271;22568;-83
2023/06/20 06:12:17;;;;;;;7.30;5.80;;;;;;;30.34;44.07;96771.98;109117;1269;22525;-83
2023/06/20 06:14:53;;;;;;;5.50;5.00;;;;;;;30.24;43.62;96771.27;108967;1269;86343;-84
2023/06/20 06:17:28;;;;;;;6.30;5.10;;;;;;;30.58;42.94;96770.77;109085;1266;22529;-83
2023/06/20 06:20:10;;;;;;;5.90;5.20;;;;;;;31.04;42.69;96773.36;109077;1272;22518;-83
2023/06/20 06:22:44;;;;;;;6.10;5.50;;;;;;;31.76;42.08;96772.65;109070;1267;23166;-83
2023/06/20 06:25:21;;;;;;;5.70;5.20;;;;;;;32.17;41.37;96771.51;108974;1272;51886;-84
2023/06/20 06:27:53;;;;;;;;;;;;;;;32.64;40.68;96775.14;109031;1273;22764;-83
2023/06/20 06:30:27;;;;;;;6.90;5.70;;;;;;;32.58;39.61;96776.11;109015;1273;22549;-83
2023/06/20 06:33:07;;;;;;;6.30;5.40;;;;;;;32.18;38.96;96775.48;109038;1266;22518;-84
2023/06/20 06:35:41;;;;;;;5.90;5.30;;;;;;;31.80;38.43;96779.96;108996;1272;145181;-84
2023/06/20 06:38:24;;;;;;;6.10;5.50;;;;;;;31.17;37.96;96783.32;109079;1269;22505;-84
2023/06/20 06:40:59;;;;;;;6.10;5.50;;;;;;;30.82;38.70;96785.25;109069;1272;22511;-83
2023/06/20 06:43:35;;;;;;;5.00;4.50;;;;;;;31.05;38.77;96783.68;109082;1272;25136;-84
2023/06/20 06:46:12;;;;;;;6.00;5.10;;;;;;;30.94;38.55;96777.46;109001;1272;68481;-84
2023/06/20 06:48:54;;;;;;;7.10;5.40;;;;;;;30.91;38.98;96780.31;109045;1272;22566;-83
2023/06/20 06:51:28;;;;;;;5.30;4.80;;;;;;;31.13;39.37;96783.84;108963;1267;22559;-83
2023/06/20 06:54:08;;;;;;;5.70;5.20;;;;;;;31.12;38.87;96783.45;108906;1271;60630;-83
2023/06/20 06:56:52;;;;;;;6.50;5.60;;;;;;;31.03;39.13;96785.49;108949;1269;22796;-83
2023/06/20 06:59:38;;;;;;;5.80;5.20;;;;;;;31.11;39.40;96781.58;108937;1275;22503;-83
2023/06/20 07:02:17;;;;;;;6.40;5.50;;;;;;;31.18;39.22;96786.04;108954;1272;22511;-81
2023/06/20 07:04:57;;;;;;;6.00;5.30;;;;;;;31.27;39.02;96783.08;108926;1268;47797;-81
2023/06/20 07:07:32;;;;;;;7.50;5.50;;;;;;;31.14;38.67;96785.70;108992;1267;22534;-80
2023/06/20 07:10:17;;;;;;;6.00;5.40;;;;;;;30.98;38.18;96784.06;109008;1267;22560;-80
2023/06/20 07:12:50;;;;;;;5.70;5.10;;;;;;;30.83;38.36;96780.31;109030;1272;24006;-80
2023/06/20 07:15:23;;;;;;;6.70;5.50;;;;;;;30.66;38.47;96783.53;108673;1260;47279;-79
2023/06/20 07:17:56;;;;;;;6.30;5.10;;;;;;;30.59;38.55;96785.61;108744;1267;22515;-78
2023/06/20 07:20:36;;;;;;;5.50;5.00;;;;;;;30.48;38.51;96788.52;108785;1272;22992;-78
2023/06/20 07:23:13;;;;;;;5.30;4.80;;;;;;;30.37;38.55;96787.51;108750;1269;22474;-81
2023/06/20 07:26:00;;;;;;;6.70;5.10;;;;;;;30.35;38.80;96783.54;108955;1271;39937;-80
2023/06/20 07:28:35;;;;;;;6.20;4.90;;;;;;;30.33;38.75;96789.11;108986;1273;24201;-81
2023/06/20 07:31:22;;;;;;;6.80;5.20;;;;;;;30.36;38.76;96789.95;109055;1268;25241;-81
2023/06/20 07:34:01;;;;;;;5.80;5.30;;;;;;;30.39;38.79;96792.02;108907;1272;63895;-80
2023/06/20 07:36:36;;;;;;;6.10;5.10;;;;;;;30.40;39.06;96794.67;109012;1273;24289;-81
2023/06/20 07:39:18;;;;;;;5.90;5.30;;;;;;;30.43;38.74;96792.39;109008;1269;24392;-81
2023/06/20 07:41:52;;;;;;;5.90;5.30;;;;;;;30.50;39.32;96798.58;108962;1275;22520;-81
2023/06/20 07:44:23;;;;;;;6.80;5.40;;;;;;;30.56;39.07;96797.60;108969;1259;66236;-81
2023/06/20 07:47:06;;;;;;;6.20;5.60;;;;;;;30.45;39.07;96800.58;108932;1269;23295;-81
2023/06/20 07:49:39;;;;;;;6.40;5.60;;;;;;;30.31;39.03;96801.48;109152;1274;25407;-82
2023/06/20 07:52:15;;;;;;;6.70;5.40;;;;;;;30.16;39.27;96798.63;109080;1267;22187;-82
2023/06/20 07:54:52;;;;;;;5.80;5.20;;;;;;;30.17;39.03;96800.41;109132;1265;48373;-82
2023/06/20 07:57:28;;;;;;;5.90;5.30;;;;;;;30.22;38.78;96801.15;109115;1273;22521;-82
2023/06/20 08:00:12;;;;;;;5.50;5.00;;;;;;;30.24;38.38;96800.66;109251;1268;22519;-82
2023/06/20 08:02:57;;;;;;;8.00;5.30;;;;;;;30.30;38.41;96800.71;109133;1273;23291;-82
2023/06/20 08:05:33;;;;;;;5.70;5.00;;;;;;;30.39;37.94;96797.19;109079;1269;49888;-82
2023/06/20 08:08:12;;;;;;;5.60;4.70;;;;;;;30.49;37.71;96799.21;109099;1272;24289;-82
2023/06/20 08:10:46;;;;;;;8.40;5.40;;;;;;;30.54;37.34;96796.90;109150;1269;24207;-82
2023/06/20 08:13:27;;;;;;;5.40;4.90;;;;;;;30.42;36.92;96797.01;109108;1267;24264;-82
2023/06/20 08:16:08;;;;;;;5.50;5.00;;;;;;;30.35;36.86;96797.52;109135;1267;45031;-82
2023/06/20 08:18:40;;;;;;;5.10;4.70;;;;;;;30.22;36.52;96798.02;109164;1250;22512;-82
2023/06/20 08:21:11;;;;;;;5.30;4.80;;;;;;;30.03;36.49;96795.17;109146;1258;24243;-83
2023/06/20 08:23:44;;;;;;;5.10;4.60;;;;;;;29.97;36.66;96799.10;109087;1272;22559;-82
2023/06/20 08:26:20;;;;;;;5.10;4.60;;;;;;;30.04;36.63;96795.18;109002;1271;60464;-82
2023/06/20 08:28:56;;;;;;;5.30;4.70;;;;;;;30.16;36.48;96802.92;109175;1272;25462;-82
2023/06/20 08:31:36;;;;;;;5.70;4.90;;;;;;;30.13;36.08;96798.16;109067;1275;22586;-81
2023/06/20 08:34:08;;;;;;;7.30;4.90;;;;;;;30.17;35.83;96800.89;109041;1265;53483;-83
2023/06/20 08:36:40;;;;;;;5.50;4.90;;;;;;;30.23;35.39;96800.59;109025;1269;26416;-81
2023/06/20 08:39:12;;;;;;;5.50;5.00;;;;;;;30.22;35.32;96799.12;109094;1268;22561;-81
2023/06/20 08:41:46;;;;;;;5.40;4.90;;;;;;;30.00;34.80;96800.89;109101;1269;23894;-82
2023/06/20 08:44:19;;;;;;;5.70;5.00;;;;;;;29.86;35.30;96803.16;109045;1273;42911;-81
2023/06/20 08:46:56;;;;;;;6.10;4.60;;;;;;;29.66;35.49;96801.95;109050;1275;22779;-81
2023/06/20 08:49:29;;;;;;;9.40;5.00;;;;;;;29.51;35.25;96803.50;109025;1273;22525;-81
2023/06/20 08:52:07;;;;;;;5.80;4.60;;;;;;;29.22;35.15;96804.60;109060;1272;22523;-82
2023/06/20 08:54:43;;;;;;;5.90;5.40;;;;;;;28.92;35.26;96803.66;109004;1274;37940;-81
2023/06/20 08:57:15;;;;;;;5.70;5.00;;;;;;;28.78;36.16;96798.13;108987;1272;22518;-82
2023/06/20 08:59:49;;;;;;;6.70;5.40;;;;;;;28.65;35.94;96804.38;109062;1273;22522;-83
2023/06/20 09:02:21;;;;;;;5.90;5.30;;;;;;;28.52;35.93;96803.54;109033;1273;25424;-83
2023/06/20 09:05:05;;;;;;;6.70;5.60;;;;;;;28.43;36.45;96803.15;109013;1272;46348;-82
2023/06/20 09:07:41;;;;;;;7.90;5.20;;;;;;;28.35;36.07;96802.45;109060;1269;23653;-83
2023/06/20 09:10:14;;;;;;;6.00;5.40;;;;;;;28.30;36.50;96797.86;109089;1269;22508;-83
2023/06/20 09:12:57;;;;;;;6.80;5.40;;;;;;;28.22;36.36;96792.52;109131;1269;22525;-83
2023/06/20 09:15:30;;;;;;;5.60;5.00;;;;;;;28.11;36.22;96795.47;109074;1270;52832;-84
2023/06/20 09:18:02;;;;;;;6.10;5.30;;;;;;;28.14;36.39;96793.38;109057;1272;22563;-84
2023/06/20 09:20:34;;;;;;;5.70;4.90;;;;;;;28.20;35.96;96793.77;109124;1251;22574;-85
2023/06/20 09:23:08;;;;;;;5.80;5.20;;;;;;;28.13;35.66;96792.29;109071;1272;22518;-85
2023/06/20 09:25:43;;;;;;;6.00;5.40;;;;;;;27.94;35.73;96787.05;109197;1267;98742;-85
2023/06/20 09:28:20;;;;;;;6.70;5.50;;;;;;;27.79;35.97;96786.24;109222;1260;22534;-84
2023/06/20 09:30:55;;;;;;;7.00;5.70;;;;;;;27.67;36.11;96790.26;109147;1266;22580;-85
2023/06/20 09:33:38;;;;;;;5.20;4.70;;;;;;;27.74;37.08;96789.98;109225;1272;25252;-85
2023/06/20 09:39:15;;;;;;;6.70;5.30;;;;;;;27.91;37.63;96783.62;109362;1267;22522;-85
2023/06/20 09:41:50;;;;;;;5.70;5.10;;;;;;;28.07;38.33;96782.39;109201;1257;22627;-84
2023/06/20 09:44:25;;;;;;;9.30;5.10;;;;;;;28.29;38.34;96782.97;109075;1272;42121;-84
2023/06/20 09:46:56;;;;;;;5.80;5.10;;;;;;;28.41;38.05;96777.28;109190;1272;25288;-84
2023/06/20 09:49:31;;;;;;;6.70;5.20;;;;;;;28.50;38.18;96779.70;109159;1272;22537;-84
2023/06/20 09:52:07;;;;;;;5.90;5.30;;;;;;;28.53;37.59;96773.45;109094;1272;22525;-84
2023/06/20 09:54:51;;;;;;;6.20;5.60;;;;;;;28.46;37.12;96777.13;109074;1273;25399;-84
2023/06/20 09:57:27;;;;;;;6.60;5.70;;;;;;;28.38;37.16;96781.48;109046;1269;22547;-84
2023/06/20 09:59:59;;;;;;;7.40;5.50;;;;;;;28.26;36.79;96781.95;109087;1270;25593;-84
2023/06/20 10:02:31;;;;;;;9.40;5.70;;;;;;;28.06;36.44;96776.55;109104;1272;22523;-81
2023/06/20 10:05:12;;;;;;;6.00;5.40;;;;;;;27.94;37.38;96778.09;109022;1267;22507;-82
2023/06/20 10:07:45;;;;;;;5.90;5.30;;;;;;;28.01;37.21;96781.38;109060;1267;22577;-80
2023/06/20 10:10:18;;;;;;;8.20;5.60;;;;;;;28.03;37.12;96779.13;109057;1273;23800;-82
2023/06/20 10:12:50;;;;;;;6.40;5.30;;;;;;;28.04;37.37;96782.23;109028;1267;22514;-82
2023/06/20 10:15:22;;;;;;;6.80;5.20;;;;;;;28.09;37.91;96782.86;109053;1272;24209;-84
2023/06/20 10:17:56;;;;;;;6.90;5.20;;;;;;;28.21;37.77;96777.48;109161;1269;22643;-84
2023/06/20 10:20:31;;;;;;;6.30;5.70;;;;;;;28.28;38.17;96778.61;109113;1273;22626;-84
2023/06/20 10:23:04;;;;;;;6.30;5.40;;;;;;;28.36;38.13;96781.34;109130;1269;24014;-85
2023/06/20 10:25:52;;;;;;;8.00;6.00;;;;;;;28.31;37.39;96777.76;109006;1267;81792;-86
2023/06/20 10:28:24;;;;;;;6.90;5.60;;;;;;;28.24;37.57;96780.52;109077;1270;26449;-87
2023/06/20 10:31:01;;;;;;;8.10;5.70;;;;;;;28.21;37.07;96775.39;109066;1270;24198;-84
2023/06/20 10:33:45;;;;;;;6.90;5.40;;;;;;;28.28;37.60;96777.90;109023;1273;22533;-84
2023/06/20 10:36:20;;;;;;;7.50;5.90;;;;;;;28.33;37.45;96774.10;109042;1267;106322;-84
2023/06/20 10:39:15;;;;;;;7.70;5.50;;;;;;;28.35;37.45;96769.27;109115;1272;22522;-85
2023/06/20 10:41:51;;;;;;;5.80;5.10;;;;;;;28.50;37.94;96761.92;109207;1271;22543;-85
2023/06/20 10:44:32;;;;;;;6.10;5.50;;;;;;;28.55;38.08;96761.13;109114;1269;45578;-86
2023/06/20 10:47:05;;;;;;;8.20;6.30;;;;;;;28.56;38.12;96759.41;109101;1272;22552;-86
2023/06/20 10:49:39;;;;;;;8.40;6.30;;;;;;;28.59;38.87;96756.94;109126;1272;22563;-85
2023/06/20 10:52:12;;;;;;;6.60;5.90;;;;;;;28.68;38.92;96755.73;109076;1273;24231;-84
2023/06/20 10:54:45;;;;;;;9.90;6.00;;;;;;;28.73;39.45;96758.39;109047;1268;55667;-84
2023/06/20 10:57:25;;;;;;;7.60;6.20;;;;;;;28.74;38.99;96757.14;109104;1267;22523;-84
2023/06/20 11:00:01;;;;;;;6.10;5.60;;;;;;;28.62;38.52;96749.83;109050;1273;22651;-84
2023/06/20 11:02:36;;;;;;;6.70;5.70;;;;;;;28.45;39.08;96753.38;109084;1272;22518;-85
2023/06/20 11:05:10;;;;;;;7.00;6.30;;;;;;;28.48;39.12;96752.04;109016;1272;42196;-85
2023/06/20 11:08:03;;;;;;;7.00;6.00;;;;;;;28.37;38.66;96751.82;109059;1257;22678;-84
2023/06/20 11:10:40;;;;;;;6.70;6.00;;;;;;;28.20;38.74;96750.46;109018;1274;24167;-85
2023/06/20 11:13:12;;;;;;;7.50;6.50;;;;;;;28.08;38.60;96754.04;109052;1267;24280;-82
2023/06/20 11:15:43;;;;;;;8.20;6.30;;;;;;;27.87;38.50;96750.37;108968;1271;73342;-82
2023/06/20 11:18:17;;;;;;;7.00;5.60;;;;;;;27.86;39.63;96748.04;109069;1273;22507;-84
2023/06/20 11:20:51;;;;;;;8.20;6.40;;;;;;;27.99;39.55;96745.08;109009;1267;25929;-85
2023/06/20 11:23:34;;;;;;;8.00;6.30;;;;;;;28.01;39.33;96745.23;109107;1270;22566;-85
2023/06/20 11:26:13;;;;;;;7.50;5.70;;;;;;;28.03;40.31;96746.64;109069;1273;53818;-85
2023/06/20 11:28:46;;;;;;;6.80;5.90;;;;;;;28.05;40.26;96746.56;109046;1268;22517;-85
2023/06/20 11:31:18;;;;;;;6.70;6.00;;;;;;;28.05;40.48;96747.20;109066;1270;22519;-84
2023/06/20 11:33:49;;;;;;;6.70;6.00;;;;;;;28.09;41.01;96748.98;109051;1267;22519;-83
2023/06/20 11:36:21;;;;;;;7.80;6.40;;;;;;;28.17;40.75;96748.05;109014;1267;38821;-84
2023/06/20 11:38:53;;;;;;;7.40;6.60;;;;;;;28.14;39.70;96745.55;109103;1273;22699;-82
2023/06/20 11:41:34;;;;;;;7.30;6.00;;;;;;;28.13;40.58;96743.69;109083;1251;22536;-84
2023/06/20 11:44:19;;;;;;;6.90;6.30;;;;;;;28.24;40.63;96745.95;109018;1273;64381;-84
2023/06/20 11:49:48;;;;;;;9.10;6.50;;;;;;;28.09;39.84;96737.77;109066;1273;23175;-86
2023/06/20 11:52:31;;;;;;;7.60;6.30;;;;;;;28.05;39.79;96730.38;109062;1266;22522;-86
2023/06/20 11:55:04;;;;;;;7.30;6.60;;;;;;;27.94;39.78;96733.95;109092;1267;66390;-86
2023/06/20 11:57:35;;;;;;;8.40;6.80;;;;;;;27.94;39.91;96735.03;109047;1273;22592;-86
2023/06/20 12:00:24;;;;;;;7.60;6.40;;;;;;;28.00;39.98;96733.25;109139;1270;23385;-85
2023/06/20 12:02:58;;;;;;;6.80;6.20;;;;;;;28.10;40.10;96734.80;109026;1270;26455;-88
2023/06/20 12:05:37;;;;;;;7.40;6.60;;;;;;;28.16;40.05;96737.06;109115;1266;60457;-84